FTW weather

Fort Worth Meacham International Airport
Fort Worth, Texas, United States

Public forecast

Using degrees Fahrenheit for public forecast. Weather courtesy of forecast.io.

Current aviation weather report (METAR) for Fort Worth Meacham International Airport

Retrieved 2020/02/28 23:53 UTC (1 hour ago):

KFTW 282353Z 22005KT 10SM CLR 17/M03 A3028 RMK AO2 SLP253 T01721028 10189 20139 56010

Aviation forecast (TAF) for Fort Worth Meacham International Airport

Retrieved 2020-02-29 00:33 UTC (20 minutes ago):

TAF KFTW 282330Z 2900/2924 20003KT P6SM FEW250 FM290100 17003KT P6SM FEW250 FM291900 18015G25KT P6SM SCT250